Time;durP1;ratioP1;P1;durP2;ratioP2;P2;SDS_P1;SDS_P2;PMS_P1;PMS_P2;Temp;Humidity;BMP_temperature;BMP_pressure;BME280_temperature;BME280_humidity;BME280_pressure;Samples;Min_cycle;Max_cycle;Signal;HPM_P1;HPM_P2
2022/05/22 00:00:34;;;;;;;3.87;0.45;;;;;;;12.33;100.00;98378.66;1606697;87;20116;-59
2022/05/22 00:03:00;;;;;;;2.65;0.53;;;;;;;12.32;100.00;98394.00;1641414;86;21041;-60
2022/05/22 00:05:27;;;;;;;7.00;0.47;;;;;;;12.27;100.00;98388.11;1627428;86;21090;-59
2022/05/22 00:07:55;;;;;;;2.98;0.40;;;;;;;12.23;100.00;98391.77;1655229;86;21014;-59
2022/05/22 00:10:22;;;;;;;2.30;0.50;;;;;;;12.24;100.00;98396.93;1612358;87;21060;-60
2022/05/22 00:12:49;;;;;;;4.50;0.42;;;;;;;12.21;100.00;98388.57;1644991;87;21585;-59
2022/05/22 00:15:16;;;;;;;3.52;0.40;;;;;;;12.13;100.00;98395.59;1640206;87;21051;-59
2022/05/22 00:17:42;;;;;;;1.80;0.30;;;;;;;12.06;100.00;98392.52;1620051;86;21492;-59
2022/05/22 00:20:12;;;;;;;4.47;0.65;;;;;;;11.95;100.00;98390.61;1640977;86;20951;-59
2022/05/22 00:22:39;;;;;;;4.85;0.40;;;;;;;11.85;100.00;98393.61;1602138;88;21110;-59
2022/05/22 00:25:10;;;;;;;4.50;0.33;;;;;;;11.78;100.00;98391.88;1624725;86;21519;-59
2022/05/22 00:27:35;;;;;;;4.78;0.45;;;;;;;11.75;100.00;98387.61;1652684;86;21520;-58
2022/05/22 00:30:01;;;;;;;2.95;0.60;;;;;;;11.71;100.00;98388.80;1638360;86;21610;-59
2022/05/22 00:32:28;;;;;;;4.40;0.50;;;;;;;11.66;100.00;98385.34;1644661;86;20992;-59
2022/05/22 00:34:55;;;;;;;3.40;0.60;;;;;;;11.64;100.00;98384.86;1641421;86;21043;-60
2022/05/22 00:37:24;;;;;;;3.60;0.40;;;;;;;11.59;100.00;98380.34;1653175;86;21602;-59
2022/05/22 00:39:52;;;;;;;4.03;0.50;;;;;;;11.59;100.00;98384.42;1675379;84;21533;-59
2022/05/22 00:42:20;;;;;;;3.05;0.40;;;;;;;11.63;100.00;98383.24;1673524;84;21078;-59
2022/05/22 00:44:47;;;;;;;6.42;0.55;;;;;;;11.64;100.00;98384.86;1624777;87;21024;-59
2022/05/22 00:47:15;;;;;;;3.27;0.60;;;;;;;11.61;100.00;98380.04;1620652;87;21135;-59
2022/05/22 00:49:43;;;;;;;4.47;0.53;;;;;;;11.55;100.00;98371.17;1682178;85;21050;-59
2022/05/22 00:52:24;;;;;;;;;;;;;;;11.43;100.00;98355.41;1614948;87;21116;-59
2022/05/22 00:55:01;;;;;;;2.52;0.50;;;;;;;11.55;100.00;98366.30;1662621;85;20116;-57
2022/05/22 00:57:36;;;;;;;2.05;0.47;;;;;;;11.53;100.00;98363.88;1718001;82;21078;-58
2022/05/22 01:00:07;;;;;;;3.50;0.40;;;;;;;11.48;100.00;98365.34;1712703;82;21051;-58
2022/05/22 01:05:20;;;;;;;2.37;0.40;;;;;;;11.42;100.00;98351.61;1719315;82;21092;-58
2022/05/22 01:07:46;;;;;;;1.57;0.30;;;;;;;11.41;100.00;98350.80;1722447;82;21038;-58
2022/05/22 01:10:12;;;;;;;;;;;;;;;11.44;100.00;98348.81;1726822;82;20981;-58
2022/05/22 01:12:40;;;;;;;1.27;0.55;;;;;;;11.40;100.00;98345.13;1700945;82;20132;-58
2022/05/22 01:15:08;;;;;;;4.45;0.40;;;;;;;11.30;100.00;98349.44;1714840;82;21038;-58
2022/05/22 01:17:45;;;;;;;1.20;0.45;;;;;;;11.24;100.00;98345.23;1718132;82;21003;-58
2022/05/22 01:20:12;;;;;;;2.90;0.47;;;;;;;11.21;100.00;98338.24;1659365;84;21015;-58
2022/05/22 01:22:39;;;;;;;5.12;1.05;;;;;;;11.19;100.00;98341.84;1725295;82;21035;-58
2022/05/22 01:25:07;;;;;;;2.47;0.50;;;;;;;11.21;100.00;98328.16;1721635;82;21405;-59
2022/05/22 01:27:37;;;;;;;5.40;0.50;;;;;;;11.17;100.00;98331.80;1720181;82;21634;-59
2022/05/22 01:30:22;;;;;;;2.90;0.40;;;;;;;11.09;100.00;98332.56;1713567;81;20976;-59
2022/05/22 01:32:50;;;;;;;2.50;0.98;;;;;;;11.03;100.00;98323.69;1721823;82;20987;-59
2022/05/22 01:35:21;;;;;;;3.12;0.60;;;;;;;10.97;100.00;98326.30;1724131;82;20971;-59
2022/05/22 01:37:48;;;;;;;3.83;0.50;;;;;;;10.95;100.00;98325.22;1684453;85;21116;-58
2022/05/22 01:40:16;;;;;;;3.15;0.60;;;;;;;10.96;100.00;98314.59;1684336;84;21555;-59
2022/05/22 01:42:44;;;;;;;2.80;0.62;;;;;;;10.97;100.00;98319.48;1734578;82;21064;-59
2022/05/22 01:45:14;;;;;;;1.17;0.45;;;;;;;10.92;100.00;98314.95;1719077;82;21043;-59
2022/05/22 01:47:42;;;;;;;5.33;0.60;;;;;;;10.90;100.00;98310.39;1723005;82;20944;-58
2022/05/22 01:50:10;;;;;;;1.47;0.40;;;;;;;10.89;100.00;98303.88;1718797;82;21006;-58
2022/05/22 01:52:37;;;;;;;2.77;0.60;;;;;;;10.92;100.00;98308.15;1725037;82;21023;-59
2022/05/22 01:55:07;;;;;;;4.55;0.53;;;;;;;10.94;100.00;98309.22;1722092;82;21014;-59
2022/05/22 01:57:36;;;;;;;4.05;0.65;;;;;;;10.93;100.00;98308.41;1719547;82;20968;-59
2022/05/22 02:00:08;;;;;;;4.03;0.50;;;;;;;10.92;100.00;98303.26;1723990;82;21083;-58
2022/05/22 02:02:38;;;;;;;1.50;0.50;;;;;;;10.91;100.00;98303.81;1718793;82;21074;-58
2022/05/22 02:05:06;;;;;;;2.45;0.50;;;;;;;10.96;100.00;98301.53;1724201;82;21652;-59
2022/05/22 02:10:19;;;;;;;3.05;0.60;;;;;;;11.09;100.00;98291.13;1722012;82;21109;-58
2022/05/22 02:12:48;;;;;;;2.55;0.50;;;;;;;11.12;100.00;98288.36;1684677;84;21090;-59
2022/05/22 02:15:15;;;;;;;6.30;0.80;;;;;;;11.13;100.00;98281.23;1670460;84;20988;-59
2022/05/22 02:17:42;;;;;;;3.72;0.50;;;;;;;11.20;100.00;98282.95;1716772;82;21032;-59
2022/05/22 02:20:09;;;;;;;;;;;;;;;11.28;100.00;98278.69;1694537;84;21010;-59
2022/05/22 02:22:46;;;;;;;1.50;0.40;;;;;;;11.35;100.00;98281.77;1664941;86;20455;-58
2022/05/22 02:25:14;;;;;;;1.62;0.60;;;;;;;11.30;100.00;98270.44;1721226;82;21046;-60
2022/05/22 02:27:41;;;;;;;3.77;0.60;;;;;;;11.37;100.00;98271.38;1719995;82;20986;-58
2022/05/22 02:30:09;;;;;;;3.77;0.50;;;;;;;11.44;100.00;98264.34;1681367;84;21376;-57
2022/05/22 02:32:39;;;;;;;1.85;0.53;;;;;;;11.59;100.00;98265.06;1723681;82;21435;-59
2022/05/22 02:35:09;;;;;;;1.70;0.62;;;;;;;11.69;100.00;98260.13;1720624;82;21019;-59
2022/05/22 02:37:49;;;;;;;2.70;0.60;;;;;;;11.74;100.00;98253.78;1723231;82;20958;-59
2022/05/22 02:40:30;;;;;;;3.58;0.50;;;;;;;11.78;100.00;98258.30;1715681;82;21043;-59
2022/05/22 02:42:58;;;;;;;2.00;0.50;;;;;;;11.86;100.00;98257.53;1723375;82;21471;-59
2022/05/22 02:45:30;;;;;;;2.90;0.60;;;;;;;11.94;100.00;98251.28;1727157;81;21075;-59
2022/05/22 02:47:58;;;;;;;4.67;0.70;;;;;;;12.00;100.00;98246.50;1723789;82;21047;-58
2022/05/22 02:50:27;;;;;;;6.22;0.70;;;;;;;12.00;100.00;98242.41;1723430;82;21084;-59
2022/05/22 02:52:54;;;;;;;5.25;0.68;;;;;;;12.02;100.00;98246.17;1730853;82;21039;-59
2022/05/22 02:55:23;;;;;;;1.87;0.68;;;;;;;11.94;100.00;98224.56;1724552;81;21634;-60
2022/05/22 02:57:50;;;;;;;3.75;1.00;;;;;;;12.09;100.00;98234.23;1723342;82;21051;-59
2022/05/22 03:00:19;;;;;;;;;;;;;;;12.15;100.00;98233.76;1704902;82;21895;-59
2022/05/22 03:02:51;;;;;;;4.33;0.98;;;;;;;12.14;100.00;98232.73;1718580;82;20136;-59
2022/05/22 03:05:18;;;;;;;3.60;0.72;;;;;;;12.03;100.00;98236.32;1678730;84;21075;-59
2022/05/22 03:07:44;;;;;;;2.47;0.70;;;;;;;12.01;100.00;98233.09;1719079;82;21003;-59
2022/05/22 03:10:19;;;;;;;5.08;0.70;;;;;;;12.04;100.00;98220.77;1717248;82;21094;-59
2022/05/22 03:12:46;;;;;;;4.40;1.00;;;;;;;12.11;100.00;98221.09;1702241;82;21039;-59
2022/05/22 03:15:15;;;;;;;6.15;1.10;;;;;;;12.05;100.00;98205.98;1724718;82;21014;-59
2022/05/22 03:17:42;;;;;;;7.28;1.15;;;;;;;12.11;100.00;98217.01;1721879;82;21051;-59
2022/05/22 03:20:12;;;;;;;3.40;0.90;;;;;;;12.09;100.00;98215.95;1717896;82;21027;-59
2022/05/22 03:22:39;;;;;;;3.95;0.90;;;;;;;12.14;100.00;98208.98;1725972;82;21537;-59
2022/05/22 03:25:06;;;;;;;2.87;0.78;;;;;;;12.20;100.00;98202.25;1664447;84;21035;-60
2022/05/22 03:27:33;;;;;;;2.90;0.85;;;;;;;12.21;100.00;98206.59;1722398;82;20939;-59
2022/05/22 03:29:59;;;;;;;5.10;0.72;;;;;;;12.19;100.00;98200.64;1722160;82;21003;-59
2022/05/22 03:32:26;;;;;;;3.55;0.90;;;;;;;12.19;100.00;98191.64;1721658;82;21070;-60
2022/05/22 03:34:52;;;;;;;3.72;1.02;;;;;;;12.20;100.00;98194.06;1725600;82;21502;-60
2022/05/22 03:37:19;;;;;;;3.45;0.98;;;;;;;12.30;100.00;98191.02;1727163;81;21023;-59
2022/05/22 03:39:46;;;;;;;6.70;1.00;;;;;;;12.33;100.00;98194.47;1720046;82;21652;-60
2022/05/22 03:42:13;;;;;;;3.30;0.95;;;;;;;12.32;100.00;98194.25;1724403;82;21094;-59
2022/05/22 03:44:41;;;;;;;9.60;1.65;;;;;;;12.32;100.00;98192.89;1722631;82;21023;-59
2022/05/22 03:47:08;;;;;;;4.25;0.90;;;;;;;12.35;100.00;98189.52;1715141;82;21050;-59
2022/05/22 03:49:36;;;;;;;4.70;0.93;;;;;;;12.40;100.00;98189.89;1716125;82;21082;-60
2022/05/22 03:52:03;;;;;;;;;;;;;;;12.41;100.00;98188.22;1723460;82;21051;-60
2022/05/22 03:54:30;;;;;;;3.30;0.80;;;;;;;12.40;100.00;98184.44;1705599;83;20397;-59
2022/05/22 03:56:58;;;;;;;3.58;0.95;;;;;;;12.34;100.00;98183.80;1725419;81;21758;-60
2022/05/22 03:59:27;;;;;;;4.03;0.90;;;;;;;12.38;100.00;98184.77;1716351;82;21601;-59
2022/05/22 04:01:54;;;;;;;4.70;0.90;;;;;;;12.46;100.00;98175.80;1726912;81;21633;-59
2022/05/22 04:04:21;;;;;;;3.52;0.82;;;;;;;12.51;100.00;98184.92;1725838;81;21066;-59
2022/05/22 04:06:47;;;;;;;7.78;0.90;;;;;;;12.58;100.00;98182.50;1732326;81;21093;-59
2022/05/22 04:09:16;;;;;;;5.25;0.88;;;;;;;12.80;100.00;98185.06;1720990;82;21070;-60
2022/05/22 04:11:57;;;;;;;3.45;1.10;;;;;;;13.04;100.00;98173.05;1721773;81;21054;-60
2022/05/22 04:14:24;;;;;;;2.85;0.80;;;;;;;13.20;100.00;98167.34;1735952;81;21235;-59
2022/05/22 04:16:53;;;;;;;4.53;0.90;;;;;;;13.25;100.00;98160.91;1723914;81;21027;-60
2022/05/22 04:19:19;;;;;;;;;;;;;;;13.37;100.00;98166.47;1685940;83;21099;-59
2022/05/22 04:21:46;;;;;;;4.67;0.98;;;;;;;13.64;100.00;98168.75;1724513;82;20142;-60
2022/05/22 04:27:06;;;;;;;3.55;0.88;;;;;;;13.97;100.00;98162.06;1728501;81;21086;-59
2022/05/22 04:29:34;;;;;;;5.80;1.00;;;;;;;13.89;100.00;98173.28;1724424;82;21014;-59
2022/05/22 04:32:02;;;;;;;4.47;0.90;;;;;;;13.74;100.00;98164.86;1728079;81;21059;-61
2022/05/22 04:34:45;;;;;;;5.00;0.80;;;;;;;13.58;100.00;98174.73;1710072;82;21009;-60
2022/05/22 04:37:12;;;;;;;6.70;1.32;;;;;;;13.42;100.00;98168.47;1726079;81;21097;-59
2022/05/22 04:39:43;;;;;;;6.17;0.75;;;;;;;13.49;100.00;98168.52;1731202;82;21027;-59
2022/05/22 04:42:11;;;;;;;2.92;0.80;;;;;;;13.62;100.00;98172.95;1727323;81;21498;-59
2022/05/22 04:44:37;;;;;;;2.10;0.55;;;;;;;13.73;100.00;98159.95;1728886;81;21459;-59
2022/05/22 04:47:24;;;;;;;5.28;0.70;;;;;;;14.02;100.00;98163.24;1724269;81;21082;-60
2022/05/22 04:50:10;;;;;;;3.12;0.72;;;;;;;14.35;100.00;98162.77;1730386;81;21033;-60
2022/05/22 04:52:40;;;;;;;4.33;0.80;;;;;;;14.48;100.00;98157.37;1708181;82;21026;-59
2022/05/22 04:55:08;;;;;;;;;;;;;;;14.42;100.00;98152.66;1718153;81;21065;-59
2022/05/22 04:57:35;;;;;;;2.72;0.88;;;;;;;14.30;100.00;98157.48;1728085;81;20320;-60
2022/05/22 05:00:09;;;;;;;2.20;0.57;;;;;;;14.17;100.00;98158.53;1693493;83;21046;-60
2022/05/22 05:02:37;;;;;;;3.02;0.78;;;;;;;14.06;100.00;98160.08;1674379;85;21064;-59
2022/05/22 05:05:08;;;;;;;2.47;0.72;;;;;;;13.84;100.00;98159.01;1677212;85;21086;-60
2022/05/22 05:07:41;;;;;;;2.70;1.00;;;;;;;13.62;100.00;98151.08;1700387;83;21496;-58
2022/05/22 05:10:11;;;;;;;3.65;0.62;;;;;;;13.49;100.00;98155.66;1692711;83;21050;-58
2022/05/22 05:12:40;;;;;;;3.95;0.78;;;;;;;13.37;100.00;98164.54;1692969;84;21584;-59
2022/05/22 05:15:10;;;;;;;3.75;0.80;;;;;;;13.28;100.00;98167.08;1703443;82;21078;-59
2022/05/22 05:17:39;;;;;;;4.87;0.60;;;;;;;13.24;100.00;98160.09;1690623;84;21006;-60
2022/05/22 05:20:08;;;;;;;3.00;0.68;;;;;;;13.26;100.00;98159.20;1635541;84;21117;-59
2022/05/22 05:22:37;;;;;;;5.67;0.80;;;;;;;13.29;100.00;98157.17;1689826;83;21593;-59
2022/05/22 05:25:06;;;;;;;2.90;1.10;;;;;;;13.36;100.00;98160.20;1665957;85;21146;-59
2022/05/22 05:27:33;;;;;;;3.98;0.90;;;;;;;13.42;100.00;98147.98;1684796;83;21104;-58
2022/05/22 05:30:02;;;;;;;2.27;0.70;;;;;;;13.56;100.00;98146.94;1690287;83;21033;-59
2022/05/22 05:32:31;;;;;;;4.37;0.78;;;;;;;13.78;100.00;98148.03;1695729;83;21055;-59
2022/05/22 05:35:01;;;;;;;2.70;0.85;;;;;;;13.86;100.00;98153.44;1691772;83;21642;-59
2022/05/22 05:37:29;;;;;;;3.33;0.75;;;;;;;13.83;100.00;98152.73;1694440;83;21044;-60
2022/05/22 05:39:57;;;;;;;2.42;0.70;;;;;;;13.87;100.00;98153.68;1690976;83;21048;-60
2022/05/22 05:42:32;;;;;;;6.85;0.80;;;;;;;14.16;100.00;98144.64;1674116;84;21038;-60
2022/05/22 05:45:01;;;;;;;1.05;0.40;;;;;;;14.40;100.00;98144.79;1697067;83;21026;-60
2022/05/22 05:47:30;;;;;;;1.60;0.60;;;;;;;14.72;100.00;98147.89;1671537;84;20992;-59
2022/05/22 05:50:09;;;;;;;6.12;0.60;;;;;;;15.17;100.00;98141.84;1655256;84;21037;-58
2022/05/22 05:52:57;;;;;;;2.87;0.80;;;;;;;15.26;100.00;98146.67;1671185;85;21075;-58
2022/05/22 05:55:42;;;;;;;1.80;0.80;;;;;;;14.91;100.00;98154.45;1655948;85;21082;-59
2022/05/22 05:58:28;;;;;;;3.55;0.82;;;;;;;14.49;100.00;98152.14;1658108;85;21575;-58
2022/05/22 06:00:56;;;;;;;2.15;0.60;;;;;;;14.13;100.00;98140.39;1662746;86;21129;-58
2022/05/22 06:03:23;;;;;;;2.35;0.60;;;;;;;13.93;100.00;98161.92;1666175;85;21008;-59
2022/05/22 06:05:52;;;;;;;3.65;0.70;;;;;;;13.79;100.00;98157.25;1673007;84;21531;-59
2022/05/22 06:08:20;;;;;;;2.37;0.62;;;;;;;13.71;100.00;98158.69;1663198;85;21062;-59
2022/05/22 06:10:52;;;;;;;4.35;0.70;;;;;;;13.63;100.00;98163.63;1708268;82;21098;-59
2022/05/22 06:13:19;;;;;;;4.47;1.00;;;;;;;13.53;100.00;98161.27;1677944;83;21082;-59
2022/05/22 06:15:49;;;;;;;4.95;0.80;;;;;;;13.46;100.00;98156.32;1694596;83;21102;-60
2022/05/22 06:18:15;;;;;;;;;;;;;;;13.37;100.00;98165.91;1716539;82;21018;-59
2022/05/22 06:20:41;;;;;;;1.85;0.60;;;;;;;13.33;100.00;98161.42;1711080;82;20380;-59
2022/05/22 06:23:13;;;;;;;1.75;0.80;;;;;;;13.14;100.00;98148.16;1692370;82;21515;-59
2022/05/22 06:25:57;;;;;;;;;;;;;;;13.00;100.00;98159.83;1695619;82;21118;-59
2022/05/22 06:28:26;;;;;;;5.03;0.70;;;;;;;12.89;100.00;98164.80;1701385;82;20108;-59
2022/05/22 06:31:13;;;;;;;3.60;0.60;;;;;;;12.85;100.00;98161.14;1708115;82;21075;-58
2022/05/22 06:33:41;;;;;;;2.98;0.82;;;;;;;12.79;100.00;98180.72;1682561;82;21182;-58
2022/05/22 06:36:15;;;;;;;2.35;0.75;;;;;;;12.71;100.00;98178.27;1701212;82;21059;-58
2022/05/22 06:41:40;;;;;;;3.67;0.68;;;;;;;12.65;100.00;98162.34;1691203;83;21146;-58
2022/05/22 06:44:08;;;;;;;6.28;0.90;;;;;;;12.70;100.00;98160.27;1674458;84;21581;-59
2022/05/22 06:46:45;;;;;;;1.37;0.68;;;;;;;12.73;100.00;98169.17;1636052;85;21648;-60
2022/05/22 06:49:17;;;;;;;3.27;0.70;;;;;;;12.88;100.00;98166.51;1699285;82;21046;-60
2022/05/22 06:51:46;;;;;;;4.90;0.80;;;;;;;12.99;100.00;98167.77;1711236;82;21055;-59
2022/05/22 06:54:31;;;;;;;3.15;0.70;;;;;;;12.97;100.00;98173.55;1716017;82;21031;-59
2022/05/22 06:57:05;;;;;;;5.90;1.02;;;;;;;12.87;100.00;98173.09;1681953;84;22103;-59
2022/05/22 06:59:36;;;;;;;2.85;0.70;;;;;;;12.83;100.00;98155.18;1662811;85;21099;-59
2022/05/22 07:02:23;;;;;;;3.80;0.85;;;;;;;12.80;100.00;98166.76;1667725;84;21080;-58
2022/05/22 07:04:51;;;;;;;3.30;0.75;;;;;;;12.80;100.00;98172.78;1715116;82;21027;-59
2022/05/22 07:07:29;;;;;;;3.50;0.70;;;;;;;12.82;100.00;98161.76;1714660;82;21402;-61
2022/05/22 07:10:05;;;;;;;2.62;0.50;;;;;;;12.94;100.00;98163.27;1687156;82;21015;-58
2022/05/22 07:12:44;;;;;;;4.33;0.50;;;;;;;13.02;100.00;98169.05;1716853;82;21059;-59
2022/05/22 07:15:13;;;;;;;1.75;0.60;;;;;;;12.98;100.00;98155.23;1694468;82;21035;-59
2022/05/22 07:17:42;;;;;;;2.17;0.60;;;;;;;12.91;100.00;98156.30;1715734;82;21047;-59
2022/05/22 07:20:12;;;;;;;2.25;0.70;;;;;;;12.82;100.00;98164.49;1706318;82;21127;-58
2022/05/22 07:22:56;;;;;;;2.92;0.60;;;;;;;12.78;100.00;98155.37;1643395;86;21109;-58
2022/05/22 07:25:36;;;;;;;5.00;0.60;;;;;;;12.82;100.00;98162.35;1709480;82;21052;-59
2022/05/22 07:28:05;;;;;;;2.37;0.70;;;;;;;12.79;100.00;98163.78;1703957;82;21082;-58
2022/05/22 07:30:37;;;;;;;4.33;0.65;;;;;;;12.78;100.00;98168.22;1700653;82;21077;-58
2022/05/22 07:33:06;;;;;;;2.50;0.45;;;;;;;12.74;100.00;98166.70;1710366;82;21601;-59
2022/05/22 07:35:55;;;;;;;2.58;0.82;;;;;;;12.76;100.00;98158.16;1713278;82;21086;-59
2022/05/22 07:38:40;;;;;;;2.20;0.53;;;;;;;12.73;100.00;98151.98;1715586;82;21397;-58
2022/05/22 07:41:26;;;;;;;1.20;0.50;;;;;;;12.72;100.00;98166.76;1715176;82;21056;-57
2022/05/22 07:43:53;;;;;;;2.58;0.47;;;;;;;12.74;100.00;98169.98;1723516;82;20971;-59
2022/05/22 07:46:33;;;;;;;2.35;0.88;;;;;;;12.72;100.00;98160.73;1694910;82;21031;-60
2022/05/22 07:49:04;;;;;;;6.35;0.95;;;;;;;12.64;100.00;98160.77;1716635;82;20975;-59
2022/05/22 07:51:38;;;;;;;7.10;0.62;;;;;;;12.48;100.00;98180.36;1715209;82;21535;-59
2022/05/22 07:54:15;;;;;;;5.35;1.35;;;;;;;12.30;100.00;98186.93;1705183;82;20992;-59
2022/05/22 07:56:51;;;;;;;2.72;1.40;;;;;;;12.20;100.00;98180.42;1720327;81;21032;-58
2022/05/22 07:59:22;;;;;;;7.37;1.72;;;;;;;12.10;100.00;98194.94;1691151;82;20987;-59
2022/05/22 08:01:59;;;;;;;2.85;0.90;;;;;;;11.91;100.00;98187.03;1717872;81;21046;-58
2022/05/22 08:04:34;;;;;;;2.42;0.80;;;;;;;11.79;100.00;98192.31;1701923;82;20991;-59
2022/05/22 08:07:19;;;;;;;5.33;1.00;;;;;;;11.83;100.00;98202.25;1719376;82;21035;-60
2022/05/22 08:09:58;;;;;;;4.70;2.37;;;;;;;11.78;100.00;98201.05;1720295;82;21054;-59
2022/05/22 08:12:26;;;;;;;3.95;0.85;;;;;;;11.80;100.00;98207.53;1720617;82;21166;-59
2022/05/22 08:14:55;;;;;;;3.35;0.78;;;;;;;11.87;100.00;98205.95;1718323;82;21040;-59
2022/05/22 08:17:21;;;;;;;3.65;1.00;;;;;;;11.92;100.00;98199.00;1668613;84;21596;-61
2022/05/22 08:19:49;;;;;;;2.83;0.98;;;;;;;11.89;100.00;98212.46;1715004;82;21031;-60
2022/05/22 08:22:20;;;;;;;3.37;0.60;;;;;;;11.87;100.00;98211.95;1702973;82;21158;-59
2022/05/22 08:24:57;;;;;;;2.27;0.80;;;;;;;11.90;100.00;98217.58;1707972;82;21023;-59
2022/05/22 08:27:27;;;;;;;2.20;0.90;;;;;;;11.92;100.00;98215.91;1680210;82;21055;-60
2022/05/22 08:29:54;;;;;;;2.50;0.93;;;;;;;11.95;100.00;98213.91;1719658;82;21422;-59
2022/05/22 08:32:22;;;;;;;2.77;0.68;;;;;;;12.04;100.00;98225.66;1711255;82;21115;-61
2022/05/22 08:34:48;;;;;;;1.90;0.90;;;;;;;12.10;100.00;98218.92;1699677;82;21007;-59
2022/05/22 08:37:16;;;;;;;3.05;0.90;;;;;;;12.17;100.00;98214.36;1692972;83;21019;-59
2022/05/22 08:39:42;;;;;;;1.30;0.70;;;;;;;12.27;100.00;98214.05;1710240;82;21582;-60
2022/05/22 08:42:09;;;;;;;;;;;;;;;12.54;100.00;98214.33;1717088;82;21554;-62
2022/05/22 08:44:37;;;;;;;2.12;0.70;;;;;;;12.78;100.00;98207.81;1720773;82;20095;-60
2022/05/22 08:47:15;;;;;;;1.00;0.40;;;;;;;12.89;100.00;98209.09;1703797;82;21071;-59
2022/05/22 08:49:47;;;;;;;2.50;0.50;;;;;;;13.00;100.00;98199.99;1688503;82;21378;-60
2022/05/22 08:52:27;;;;;;;2.67;0.40;;;;;;;13.15;100.00;98185.27;1711874;82;21006;-59
2022/05/22 08:55:07;;;;;;;2.15;0.50;;;;;;;13.24;100.00;98187.98;1711705;81;20991;-59
2022/05/22 09:00:37;;;;;;;0.68;0.35;;;;;;;13.11;100.00;98170.64;1730111;81;21007;-61
2022/05/22 09:03:12;;;;;;;1.22;0.30;;;;;;;13.20;100.00;98186.47;1727604;81;21011;-59
2022/05/22 09:05:38;;;;;;;1.25;0.35;;;;;;;13.13;100.00;98183.99;1717110;81;21084;-60
2022/05/22 09:08:20;;;;;;;2.22;0.45;;;;;;;13.15;100.00;98190.73;1730090;81;21038;-61
2022/05/22 09:11:32;;;;;;;0.88;0.40;;;;;;;13.37;100.00;98182.87;1708017;83;21713;-58
2022/05/22 09:14:12;;;;;;;2.60;1.50;;;;;;;13.60;100.00;98198.47;1698132;83;20950;-60
2022/05/22 09:17:03;;;;;;;4.95;2.35;;;;;;;13.45;100.00;98189.69;1639949;85;21087;-61
2022/05/22 09:19:42;;;;;;;2.25;0.50;;;;;;;13.34;100.00;98199.92;1668940;84;21012;-61
2022/05/22 09:22:17;;;;;;;1.57;0.40;;;;;;;13.30;100.00;98198.97;1693341;83;21097;-61
2022/05/22 09:24:52;;;;;;;0.68;0.30;;;;;;;13.28;100.00;98202.60;1681903;84;21067;-59
2022/05/22 09:27:30;;;;;;;1.20;0.30;;;;;;;13.28;100.00;98201.23;1679331;83;21044;-61
2022/05/22 09:30:15;;;;;;;2.58;0.50;;;;;;;13.22;100.00;98189.66;1646888;84;21006;-61
2022/05/22 09:32:53;;;;;;;3.12;0.60;;;;;;;13.04;100.00;98209.92;1672779;84;21495;-61
2022/05/22 09:36:04;;;;;;;1.65;0.60;;;;;;;12.94;100.00;98212.44;1684517;83;20967;-60
2022/05/22 09:39:07;;;;;;;1.20;0.70;;;;;;;12.88;100.00;98215.66;1690944;84;21504;-60
2022/05/22 09:41:52;;;;;;;1.12;0.50;;;;;;;12.79;100.00;98217.58;1700785;83;21143;-59
2022/05/22 09:44:41;;;;;;;1.32;0.45;;;;;;;12.56;100.00;98216.16;1701297;83;21010;-60
2022/05/22 09:48:04;;;;;;;2.30;1.37;;;;;;;12.46;100.00;98220.83;1698135;83;21632;-60
2022/05/22 09:50:53;;;;;;;2.35;0.50;;;;;;;12.38;100.00;98227.07;1681200;84;21063;-59
2022/05/22 09:54:03;;;;;;;1.57;0.50;;;;;;;12.16;100.00;98225.83;1693287;83;20983;-60
2022/05/22 09:57:02;;;;;;;2.95;0.72;;;;;;;12.15;100.00;98224.80;1676929;82;21129;-60
2022/05/22 09:59:40;;;;;;;2.00;0.82;;;;;;;12.04;100.00;98236.57;1670248;84;20964;-60
2022/05/22 10:02:18;;;;;;;12.82;6.90;;;;;;;11.94;100.00;98234.11;1669204;84;21072;-59
2022/05/22 10:04:56;;;;;;;2.35;1.05;;;;;;;11.92;100.00;98231.72;1672098;84;21031;-60
2022/05/22 10:10:29;;;;;;;2.20;0.80;;;;;;;11.69;100.00;98253.32;1787513;78;23222;-60
2022/05/22 10:13:27;;;;;;;4.10;0.68;;;;;;;11.64;100.00;98248.58;1728852;82;21011;-60
2022/05/22 10:16:05;;;;;;;4.05;0.70;;;;;;;11.61;100.00;98256.03;1724794;82;21034;-61
2022/05/22 10:19:02;;;;;;;3.50;0.62;;;;;;;11.58;100.00;98251.20;1729318;82;21003;-59
2022/05/22 10:21:41;;;;;;;1.85;0.50;;;;;;;11.49;100.00;98264.23;1724410;82;21015;-61
2022/05/22 10:24:28;;;;;;;1.20;0.62;;;;;;;11.41;100.00;98261.44;1737205;82;20995;-60
2022/05/22 10:27:36;;;;;;;2.75;0.90;;;;;;;11.42;100.00;98274.77;1720583;82;21970;-59
2022/05/22 10:30:12;;;;;;;;;;;;;;;11.43;100.00;98274.21;1733559;82;21015;-60
2022/05/22 10:33:00;;;;;;;2.35;0.65;;;;;;;11.34;100.00;98271.98;1733339;82;20425;-60
2022/05/22 10:35:32;;;;;;;1.72;0.68;;;;;;;11.26;100.00;98280.38;1738176;82;21026;-60
2022/05/22 10:38:04;;;;;;;2.08;0.80;;;;;;;11.36;100.00;98277.39;1737944;81;20940;-61
2022/05/22 10:42:45;;;;;;;1.37;0.60;;;;;;;11.44;100.00;98277.97;1726916;82;21042;-59
2022/05/22 10:42:59;;;;;;;2.52;0.70;;;;;;;11.56;100.00;98284.77;1736093;82;20986;-59
2022/05/22 10:45:33;;;;;;;;;;;;;;;11.56;100.00;98283.41;1739362;82;21000;-61
2022/05/22 10:48:17;;;;;;;2.65;0.80;;;;;;;11.60;100.00;98293.92;1740393;81;20094;-61
2022/05/22 10:51:05;;;;;;;3.87;0.88;;;;;;;11.56;100.00;98286.13;1740043;82;21512;-60
2022/05/22 10:53:53;;;;;;;3.25;1.10;;;;;;;11.54;100.00;98285.65;1682323;85;21069;-61
2022/05/22 10:56:29;;;;;;;2.75;0.62;;;;;;;11.53;100.00;98283.48;1682371;84;21046;-61
2022/05/22 10:59:07;;;;;;;2.30;0.72;;;;;;;11.47;100.00;98287.46;1683738;84;21628;-60
2022/05/22 11:01:37;;;;;;;2.77;0.53;;;;;;;11.44;100.00;98293.54;1686664;84;21609;-60
2022/05/22 11:04:15;;;;;;;3.83;0.60;;;;;;;11.44;100.00;98299.77;1688928;84;21011;-60
2022/05/22 11:06:57;;;;;;;2.35;0.60;;;;;;;11.45;100.00;98297.85;1692320;84;21142;-60
2022/05/22 11:09:27;;;;;;;1.02;0.50;;;;;;;11.49;100.00;98303.73;1676310;84;21457;-60
2022/05/22 11:12:12;;;;;;;3.65;1.00;;;;;;;11.44;100.00;98298.99;1682873;85;21602;-60
2022/05/22 11:14:39;;;;;;;3.47;0.78;;;;;;;11.36;100.00;98301.91;1675772;85;21008;-59
2022/05/22 11:17:17;;;;;;;1.65;0.68;;;;;;;11.40;100.00;98308.34;1673522;85;21063;-60
2022/05/22 11:19:46;;;;;;;2.77;0.78;;;;;;;11.51;100.00;98305.36;1673313;85;21026;-60
2022/05/22 11:22:40;;;;;;;2.50;0.82;;;;;;;11.58;100.00;98313.89;1677854;85;21055;-61
2022/05/22 11:25:31;;;;;;;2.05;0.70;;;;;;;11.63;100.00;98311.02;1676383;85;21967;-60
2022/05/22 11:28:41;;;;;;;1.00;0.53;;;;;;;11.61;100.00;98322.25;1672450;85;20980;-60
2022/05/22 11:31:36;;;;;;;1.70;0.62;;;;;;;11.58;100.00;98324.80;1698974;82;21039;-60
2022/05/22 11:34:17;;;;;;;2.60;0.60;;;;;;;11.46;100.00;98330.25;1717719;82;21519;-59
2022/05/22 11:37:24;;;;;;;1.72;0.78;;;;;;;11.32;100.00;98327.34;1716602;82;21063;-60
2022/05/22 11:40:15;;;;;;;3.50;0.57;;;;;;;11.24;100.00;98324.81;1723386;82;21063;-60
2022/05/22 11:42:43;;;;;;;1.30;0.60;;;;;;;11.20;100.00;98336.07;1716432;82;20972;-60
2022/05/22 11:45:27;;;;;;;2.08;0.60;;;;;;;11.14;100.00;98329.14;1718740;82;21525;-60
2022/05/22 11:47:59;;;;;;;2.35;0.80;;;;;;;11.16;100.00;98331.58;1734830;82;21444;-60
2022/05/22 11:50:51;;;;;;;1.32;0.60;;;;;;;11.18;100.00;98334.23;1719190;82;21032;-60
2022/05/22 11:53:38;;;;;;;3.00;0.60;;;;;;;11.24;100.00;98340.34;1714471;82;21008;-60
2022/05/22 11:56:13;;;;;;;3.15;0.60;;;;;;;11.28;100.00;98343.51;1718187;82;21055;-62
2022/05/22 11:58:59;;;;;;;1.95;0.70;;;;;;;11.35;100.00;98352.05;1719499;82;20976;-60
2022/05/22 12:01:38;;;;;;;2.37;0.80;;;;;;;11.32;100.00;98340.41;1716410;82;21095;-58
2022/05/22 12:04:31;;;;;;;2.90;0.98;;;;;;;11.35;100.00;98345.24;1711679;82;21043;-58
2022/05/22 12:07:40;;;;;;;1.75;0.95;;;;;;;11.35;100.00;98343.88;1726118;82;21070;-59
2022/05/22 12:10:22;;;;;;;2.45;1.17;;;;;;;11.38;100.00;98347.34;1712226;82;21696;-58
2022/05/22 12:13:21;;;;;;;4.10;1.20;;;;;;;11.44;100.00;98353.48;1730376;82;20952;-58
2022/05/22 12:16:08;;;;;;;2.60;1.10;;;;;;;11.42;100.00;98352.42;1734031;82;21602;-59
2022/05/22 12:19:15;;;;;;;2.33;1.20;;;;;;;11.31;100.00;98352.42;1671314;84;21282;-59